Terminal Aerodrome Forecast
Issued by NWS

Home | Current Version | Previous Version | Text Only | Print | Product List | Glossary Off
Versions: 1 2 3 4 5 6 7 8 9 10 11 12 13 14 15 16

000
FTUS42 KMHX 260553
TAFISO
TAF
KISO 260553Z 2606/2706 03013KT 3SM -SN BR BKN004 OVC011
     FM261100 02012G20KT 4SM -FZDZ BR OVC006
     FM261600 02010KT 5SM BR OVC007
      AMD LTD TO CLD VIS AND WIND=

USA.gov is the U.S. government's official web portal to all federal, state and local government web resources and services.